SVA295 OERK-LGAV
Flight info
| Callsign | SVA295 |
|---|---|
| Flight time | N/A |
| Altitude | 38000 |
| Route | LONIB T503 OVANO L768 FIRAS R655 KTN R785 NIKAS L619 VESAR UN135 IMR UG802 VEXOL UY134 SOSIR N604 OGSIL |
| Aircraft | B789/H-SDE1E2E3FGHIJ2J3J4J5M1RWXY/LB1D1 |
Departure
| Time | 2026-05-07 11:41 |
|---|---|
| Airport | King Khalid International Airport (OERK) |
Arrival
| Time | N/A |
|---|---|
| Airport | Athens Eleftherios Venizelos International Airport (LGAV) |
| Time | Latitude | Longitude | Altitude | Speed | Heading |
|---|---|---|---|---|---|
| 2026-05-07 10:49 | 24.96363 | 46.70211 | 2035 ft | 0 kts | 299° |
| 2026-05-07 11:21 | 24.96362 | 46.70213 | 2062 ft | 2 kts | 299° |
| 2026-05-07 11:21 | 24.96350 | 46.70238 | 2044 ft | 4 kts | 297° |
| 2026-05-07 11:22 | 24.96338 | 46.70265 | 2044 ft | 4 kts | 292° |
| 2026-05-07 11:22 | 24.96329 | 46.70293 | 2035 ft | 4 kts | 282° |
| 2026-05-07 11:22 | 24.96326 | 46.70312 | 2044 ft | 0 kts | 263° |
| 2026-05-07 11:29 | 24.96327 | 46.70321 | 2043 ft | 3 kts | 265° |
| 2026-05-07 11:29 | 24.96328 | 46.70350 | 2042 ft | 4 kts | 272° |
| 2026-05-07 11:29 | 24.96327 | 46.70371 | 2041 ft | 3 kts | 283° |
| 2026-05-07 11:29 | 24.96318 | 46.70396 | 2041 ft | 3 kts | 305° |
| 2026-05-07 11:30 | 24.96305 | 46.70413 | 2044 ft | 2 kts | 327° |
| 2026-05-07 11:30 | 24.96294 | 46.70421 | 2044 ft | 3 kts | 330° |
| 2026-05-07 11:30 | 24.96292 | 46.70422 | 2044 ft | 0 kts | 331° |
| 2026-05-07 11:34 | 24.96306 | 46.70413 | 2044 ft | 5 kts | 331° |
| 2026-05-07 11:34 | 24.96344 | 46.70401 | 2044 ft | 5 kts | 2° |
| 2026-05-07 11:35 | 24.96370 | 46.70417 | 2036 ft | 4 kts | 45° |
| 2026-05-07 11:35 | 24.96398 | 46.70460 | 2041 ft | 9 kts | 58° |
| 2026-05-07 11:35 | 24.96439 | 46.70538 | 2042 ft | 12 kts | 60° |
| 2026-05-07 11:35 | 24.96486 | 46.70600 | 2040 ft | 8 kts | 19° |
| 2026-05-07 11:36 | 24.96544 | 46.70581 | 2039 ft | 12 kts | 329° |
| 2026-05-07 11:36 | 24.96633 | 46.70524 | 2041 ft | 16 kts | 329° |
| 2026-05-07 11:36 | 24.96729 | 46.70464 | 2040 ft | 16 kts | 330° |
| 2026-05-07 11:36 | 24.96822 | 46.70404 | 2041 ft | 16 kts | 329° |
| 2026-05-07 11:37 | 24.96916 | 46.70344 | 2044 ft | 16 kts | 330° |
| 2026-05-07 11:37 | 24.97012 | 46.70284 | 2039 ft | 16 kts | 330° |
| 2026-05-07 11:37 | 24.97108 | 46.70224 | 2042 ft | 16 kts | 330° |
| 2026-05-07 11:37 | 24.97204 | 46.70163 | 2040 ft | 16 kts | 330° |
| 2026-05-07 11:38 | 24.97300 | 46.70101 | 2040 ft | 16 kts | 330° |
| 2026-05-07 11:38 | 24.97396 | 46.70041 | 2042 ft | 16 kts | 330° |
| 2026-05-07 11:38 | 24.97478 | 46.69989 | 2039 ft | 8 kts | 331° |
| 2026-05-07 11:38 | 24.97519 | 46.69974 | 2038 ft | 5 kts | 360° |
| 2026-05-07 11:39 | 24.97546 | 46.69988 | 2038 ft | 4 kts | 41° |
| 2026-05-07 11:39 | 24.97575 | 46.70030 | 2041 ft | 10 kts | 57° |
| 2026-05-07 11:39 | 24.97616 | 46.70110 | 2041 ft | 14 kts | 62° |
| 2026-05-07 11:39 | 24.97648 | 46.70204 | 2039 ft | 10 kts | 99° |
| 2026-05-07 11:40 | 24.97608 | 46.70249 | 2037 ft | 3 kts | 149° |
| 2026-05-07 11:40 | 24.97585 | 46.70264 | 2041 ft | 20 kts | 149° |
| 2026-05-07 11:40 | 24.97242 | 46.70482 | 2042 ft | 94 kts | 151° |
| 2026-05-07 11:41 | 24.96480 | 46.70962 | 2041 ft | 159 kts | 150° |
| 2026-05-07 11:41 | 24.95393 | 46.71633 | 2417 ft | 181 kts | 153° |
| 2026-05-07 11:41 | 24.94246 | 46.72296 | 3252 ft | 195 kts | 151° |
| 2026-05-07 11:41 | 24.93109 | 46.73147 | 3982 ft | 205 kts | 136° |
| 2026-05-07 11:42 | 24.92024 | 46.74363 | 4279 ft | 238 kts | 134° |
| 2026-05-07 11:42 | 24.90738 | 46.75677 | 4767 ft | 263 kts | 139° |
| 2026-05-07 11:42 | 24.89474 | 46.77135 | 5660 ft | 272 kts | 120° |
| 2026-05-07 11:42 | 24.88840 | 46.79140 | 5968 ft | 283 kts | 98° |
| 2026-05-07 11:43 | 24.89019 | 46.81305 | 5961 ft | 290 kts | 73° |
| 2026-05-07 11:43 | 24.89876 | 46.83311 | 5979 ft | 289 kts | 66° |
| 2026-05-07 11:43 | 24.90761 | 46.85314 | 6174 ft | 293 kts | 67° |
| 2026-05-07 11:43 | 24.91642 | 46.87297 | 7347 ft | 289 kts | 67° |
| 2026-05-07 11:44 | 24.92539 | 46.89320 | 8294 ft | 296 kts | 67° |
| 2026-05-07 11:44 | 24.93454 | 46.91382 | 9264 ft | 302 kts | 67° |
| 2026-05-07 11:44 | 24.94372 | 46.93454 | 10200 ft | 309 kts | 66° |
| 2026-05-07 11:44 | 24.95353 | 46.95671 | 10601 ft | 336 kts | 66° |
| 2026-05-07 11:45 | 24.96402 | 46.98043 | 10881 ft | 362 kts | 66° |
| 2026-05-07 11:45 | 24.97549 | 47.00629 | 11182 ft | 386 kts | 65° |
| 2026-05-07 11:45 | 24.98859 | 47.03212 | 12051 ft | 389 kts | 52° |
| 2026-05-07 11:45 | 25.00880 | 47.05275 | 12900 ft | 395 kts | 32° |
| 2026-05-07 11:46 | 25.03343 | 47.06498 | 13828 ft | 395 kts | 13° |
| 2026-05-07 11:46 | 25.06066 | 47.06804 | 14639 ft | 395 kts | 353° |
| 2026-05-07 11:46 | 25.08739 | 47.06156 | 15452 ft | 393 kts | 338° |
| 2026-05-07 11:46 | 25.11351 | 47.05156 | 16209 ft | 398 kts | 338° |
| 2026-05-07 11:47 | 25.13667 | 47.04078 | 16762 ft | 406 kts | 333° |
| 2026-05-07 11:47 | 25.16218 | 47.02775 | 17684 ft | 403 kts | 330° |
| 2026-05-07 11:47 | 25.18744 | 47.01401 | 18361 ft | 408 kts | 330° |
| 2026-05-07 11:47 | 25.21211 | 46.99904 | 18981 ft | 410 kts | 326° |
| 2026-05-07 11:48 | 25.23694 | 46.98238 | 19604 ft | 415 kts | 325° |
| 2026-05-07 11:48 | 25.26158 | 46.96640 | 20204 ft | 420 kts | 327° |
| 2026-05-07 11:48 | 25.28741 | 46.95054 | 20799 ft | 425 kts | 327° |
| 2026-05-07 11:48 | 25.31326 | 46.93451 | 21370 ft | 429 kts | 326° |
| 2026-05-07 11:49 | 25.33893 | 46.91813 | 21929 ft | 433 kts | 326° |
| 2026-05-07 11:49 | 25.36548 | 46.90118 | 22483 ft | 437 kts | 326° |
| 2026-05-07 11:49 | 25.39210 | 46.88441 | 23008 ft | 442 kts | 326° |